createdAt,value
2022-10-19T00:06:18.737Z,979.97
2022-10-19T00:16:18.895Z,980.06
2022-10-19T00:26:19.423Z,979.99
2022-10-19T00:36:19.246Z,980.05
2022-10-19T00:46:19.445Z,979.93
2022-10-19T00:56:19.601Z,979.98
2022-10-19T01:06:19.806Z,980.00
2022-10-19T01:16:19.948Z,980.07
2022-10-19T01:26:20.249Z,980.15
2022-10-19T01:36:20.279Z,979.89
2022-10-19T01:46:20.465Z,979.73
2022-10-19T01:56:20.626Z,979.70
2022-10-19T02:06:20.865Z,979.57
2022-10-19T02:16:21.035Z,979.41
2022-10-19T02:26:21.244Z,979.46
2022-10-19T02:36:21.397Z,979.38
2022-10-19T02:46:21.584Z,979.27
2022-10-19T02:56:21.741Z,979.32
2022-10-19T03:06:21.960Z,979.17
2022-10-19T03:16:22.111Z,979.08
2022-10-19T03:26:22.294Z,979.04
2022-10-19T03:36:22.428Z,979.07
2022-10-19T03:46:22.833Z,979.08
2022-10-19T03:56:22.763Z,979.05
2022-10-19T04:06:22.960Z,979.05
2022-10-19T04:16:23.093Z,979.05
2022-10-19T04:26:23.280Z,978.97
2022-10-19T04:36:23.412Z,978.92
2022-10-19T04:46:23.883Z,978.88
2022-10-19T04:56:23.841Z,979.00
2022-10-19T05:06:24.048Z,979.01
2022-10-19T05:16:24.201Z,978.95
2022-10-19T05:26:24.382Z,978.99
2022-10-19T05:36:24.526Z,978.91
2022-10-19T05:46:24.730Z,978.96
2022-10-19T05:56:24.893Z,978.87
2022-10-19T06:06:25.107Z,979.00
2022-10-19T06:16:25.263Z,979.19
2022-10-19T06:26:25.485Z,979.09
2022-10-19T06:36:25.654Z,979.12
2022-10-19T06:46:25.857Z,979.12
2022-10-19T06:56:26.032Z,979.23
2022-10-19T07:06:26.230Z,979.27
2022-10-19T07:16:26.385Z,979.32
2022-10-19T07:26:26.646Z,979.25
2022-10-19T07:36:26.683Z,979.17
2022-10-19T07:46:26.885Z,979.23
2022-10-19T07:56:27.068Z,979.18
2022-10-19T08:06:27.285Z,979.16
2022-10-19T08:16:27.447Z,979.16
2022-10-19T08:26:27.692Z,979.23
2022-10-19T08:36:27.840Z,979.10
2022-10-19T08:46:28.041Z,979.01
2022-10-19T08:56:49.382Z,979.03
2022-10-19T09:06:29.553Z,979.00
2022-10-19T09:16:28.461Z,978.97
2022-10-19T09:26:28.635Z,978.92
2022-10-19T09:36:46.303Z,978.87
2022-10-19T09:46:30.075Z,978.86
2022-10-19T09:56:29.106Z,978.83
2022-10-19T10:06:29.193Z,978.73
2022-10-19T10:16:29.330Z,978.86
2022-10-19T10:26:29.565Z,978.82
2022-10-19T10:36:29.625Z,978.78
2022-10-19T10:46:29.835Z,978.59
2022-10-19T10:56:30.016Z,978.57
2022-10-19T11:06:30.232Z,978.41
2022-10-19T11:16:30.413Z,978.36
2022-10-19T11:26:30.638Z,978.24
2022-10-19T11:36:30.968Z,978.10
2022-10-19T11:46:30.962Z,977.93
2022-10-19T11:56:44.694Z,977.75
2022-10-19T12:06:32.433Z,977.58
2022-10-19T12:16:31.800Z,977.46
2022-10-19T12:26:31.688Z,977.35
2022-10-19T12:36:31.850Z,977.35
2022-10-19T12:46:32.108Z,977.31
2022-10-19T12:56:32.279Z,977.30
2022-10-19T13:06:32.518Z,977.17
2022-10-19T13:16:32.822Z,977.10
2022-10-19T13:26:32.912Z,976.97
2022-10-19T13:36:33.043Z,976.92
2022-10-19T13:46:33.374Z,976.76
2022-10-19T13:56:33.503Z,976.75
2022-10-19T14:06:33.622Z,976.57
2022-10-19T14:16:33.812Z,976.43
2022-10-19T14:26:33.910Z,976.36
2022-10-19T14:36:34.061Z,976.07
2022-10-19T14:46:34.264Z,975.90
2022-10-19T14:56:34.429Z,975.90
2022-10-19T15:06:34.634Z,975.94
2022-10-19T15:16:34.768Z,975.94
2022-10-19T15:26:34.953Z,975.98
2022-10-19T15:36:35.089Z,975.87
2022-10-19T15:46:35.331Z,975.86
2022-10-19T15:56:35.492Z,975.74
2022-10-19T16:06:35.560Z,975.72
2022-10-19T16:16:35.706Z,975.65
2022-10-19T16:26:35.903Z,975.62
2022-10-19T16:36:36.032Z,975.66
2022-10-19T16:46:36.261Z,975.55
2022-10-19T16:56:36.459Z,975.63
2022-10-19T17:06:36.657Z,975.55
2022-10-19T17:16:36.811Z,975.57
2022-10-19T17:26:36.996Z,975.54
2022-10-19T17:36:37.146Z,975.62
2022-10-19T17:46:37.378Z,975.65
2022-10-19T17:56:37.550Z,975.58
2022-10-19T18:06:37.752Z,975.52
2022-10-19T18:16:37.894Z,975.43
2022-10-19T18:26:38.078Z,975.63
2022-10-19T18:36:38.233Z,975.58
2022-10-19T18:46:38.427Z,975.50
2022-10-19T18:56:38.610Z,975.39
2022-10-19T19:06:38.865Z,975.33
2022-10-19T19:16:38.882Z,975.23
2022-10-19T19:26:39.076Z,975.19
2022-10-19T19:36:39.214Z,975.24
2022-10-19T19:46:39.407Z,975.08
2022-10-19T19:56:39.570Z,975.04
2022-10-19T20:06:39.778Z,974.98
2022-10-19T20:16:39.929Z,974.93
2022-10-19T20:26:40.125Z,974.72
2022-10-19T20:36:40.255Z,974.69
2022-10-19T20:46:40.441Z,974.66
2022-10-19T20:56:40.599Z,974.56
2022-10-19T21:06:40.795Z,974.39
2022-10-19T21:16:40.931Z,974.43
2022-10-19T21:26:41.185Z,974.51
2022-10-19T21:36:41.280Z,974.44
2022-10-19T21:46:41.499Z,974.48
2022-10-19T21:56:41.670Z,974.50
2022-10-19T22:06:42.002Z,974.43
2022-10-19T22:16:42.047Z,974.34
2022-10-19T22:26:42.282Z,974.22
2022-10-19T22:36:42.437Z,974.19
2022-10-19T22:46:42.635Z,974.19
2022-10-19T22:56:42.809Z,974.18
2022-10-19T23:06:43.111Z,974.19
2022-10-19T23:16:43.154Z,974.17
2022-10-19T23:26:43.368Z,974.06
2022-10-19T23:36:43.529Z,973.97
2022-10-19T23:46:43.747Z,973.71
2022-10-19T23:56:43.910Z,973.64
